Little Rock, Illinois
Current Conditions -  °F | °C
As of 5:52 AM on Thursday 18 Dec 2014 (Local Time) from KARR Reporting Station
Overcast Overcast  
Wind Chill: 24°   Ceiling: 1800
Heat Index: 24°   Visibility: 8mi
Dew Point: 15°   Wind: 0mph
Humidity: 69%   Direction: NA
Pressure: 30.27"   Gusts: NA
Location:  41.6798°N, 88.537°W
Report Text: KARR 181152Z AUTO 00000KT 8SM OVC018 M04/M09 A3027 RMK AO2 SLP261 T10441094 11044 21056 58004
Loading
Personal Weather Stations






























Interactive Weather Map New forecast layout! Learn more

10-Day Weather Forecast

Advertisements
Track Severe Weather on mobile